createdAt,value
2022-11-06T00:00:39.087Z,10.46
2022-11-06T00:04:04.330Z,10.41
2022-11-06T00:07:29.616Z,10.38
2022-11-06T00:10:54.870Z,10.32
2022-11-06T00:14:20.120Z,10.3
2022-11-06T00:17:45.344Z,10.31
2022-11-06T00:21:10.601Z,10.27
2022-11-06T00:24:35.875Z,10.22
2022-11-06T00:28:01.128Z,10.24
2022-11-06T00:31:26.311Z,10.18
2022-11-06T00:34:51.559Z,10.18
2022-11-06T00:38:16.803Z,10.17
2022-11-06T00:41:42.055Z,10.16
2022-11-06T00:45:07.309Z,10.17
2022-11-06T00:48:32.535Z,10.19
2022-11-06T00:51:57.804Z,10.21
2022-11-06T00:55:23.032Z,10.21
2022-11-06T00:58:48.257Z,10.16
2022-11-06T01:02:13.711Z,10.13
2022-11-06T01:05:38.737Z,10.14
2022-11-06T01:09:03.976Z,10.13
2022-11-06T01:12:29.239Z,10.11
2022-11-06T01:15:54.480Z,10.06
2022-11-06T01:19:19.746Z,10.02
2022-11-06T01:22:44.972Z,9.95
2022-11-06T01:26:10.217Z,9.88
2022-11-06T01:29:35.438Z,9.87
2022-11-06T01:33:00.675Z,9.87
2022-11-06T01:36:25.957Z,9.92
2022-11-06T01:39:51.185Z,9.97
2022-11-06T01:43:16.413Z,10
2022-11-06T01:46:41.662Z,9.99
2022-11-06T01:50:06.904Z,9.97
2022-11-06T01:53:32.169Z,9.88
2022-11-06T01:56:57.395Z,9.82
2022-11-06T02:00:22.628Z,9.8
2022-11-06T02:03:47.896Z,9.81
2022-11-06T02:07:13.139Z,9.78
2022-11-06T02:10:38.396Z,9.77
2022-11-06T02:14:03.614Z,9.74
2022-11-06T02:17:28.875Z,9.69
2022-11-06T02:20:54.143Z,9.61
2022-11-06T02:24:19.393Z,9.52
2022-11-06T02:27:44.654Z,9.47
2022-11-06T02:31:09.885Z,9.42
2022-11-06T02:34:35.108Z,9.37
2022-11-06T02:38:00.356Z,9.36
2022-11-06T02:41:25.613Z,9.36
2022-11-06T02:44:50.861Z,9.27
2022-11-06T02:48:16.279Z,9.2
2022-11-06T02:51:41.297Z,9.21
2022-11-06T02:55:06.529Z,9.17
2022-11-06T02:58:31.796Z,9.14
2022-11-06T03:01:57.125Z,9.15
2022-11-06T03:05:22.219Z,9.2
2022-11-06T03:08:47.435Z,9.26
2022-11-06T03:12:12.672Z,9.35
2022-11-06T03:15:37.894Z,9.35
2022-11-06T03:19:03.162Z,9.23
2022-11-06T03:22:28.362Z,9.21
2022-11-06T03:25:53.599Z,9.2
2022-11-06T03:29:18.835Z,9.22
2022-11-06T03:32:44.139Z,9.21
2022-11-06T03:36:09.422Z,9.19
2022-11-06T03:39:34.611Z,9.19
2022-11-06T03:42:59.844Z,9.16
2022-11-06T03:46:25.080Z,9.09
2022-11-06T03:49:50.312Z,9.08
2022-11-06T03:53:15.532Z,9.08
2022-11-06T03:56:40.741Z,9.06
2022-11-06T04:00:05.994Z,9.01
2022-11-06T04:03:31.238Z,8.95
2022-11-06T04:06:56.466Z,8.99
2022-11-06T04:10:21.730Z,9.02
2022-11-06T04:13:46.935Z,9.01
2022-11-06T04:17:12.185Z,9.05
2022-11-06T04:20:37.404Z,9.09
2022-11-06T04:24:02.626Z,9.1
2022-11-06T04:27:27.999Z,9.04
2022-11-06T04:30:53.092Z,8.99
2022-11-06T04:34:18.350Z,9.01
2022-11-06T04:37:43.577Z,9.05
2022-11-06T04:41:08.815Z,9.07
2022-11-06T04:44:34.057Z,9.11
2022-11-06T04:47:59.268Z,9.13
2022-11-06T04:51:24.504Z,9.14
2022-11-06T04:54:49.734Z,9.15
2022-11-06T04:58:15.259Z,9.17
2022-11-06T05:01:40.346Z,9.13
2022-11-06T05:05:05.450Z,9.11
2022-11-06T05:08:30.677Z,9.13
2022-11-06T05:11:55.909Z,9.16
2022-11-06T05:15:21.138Z,9.13
2022-11-06T05:18:46.399Z,9.07
2022-11-06T05:22:11.612Z,9.07
2022-11-06T05:25:36.850Z,9.07
2022-11-06T05:29:02.090Z,9.13
2022-11-06T05:32:27.316Z,9.19
2022-11-06T05:35:52.703Z,9.18
2022-11-06T05:39:17.801Z,9.2
2022-11-06T05:42:43.029Z,9.22
2022-11-06T05:46:18.936Z,9.18
2022-11-06T05:49:33.504Z,9.14
2022-11-06T05:52:58.765Z,9.17
2022-11-06T05:56:23.970Z,9.15
2022-11-06T05:59:49.181Z,9.12
2022-11-06T06:03:14.482Z,9.11
2022-11-06T06:06:39.718Z,9.14
2022-11-06T06:10:05.082Z,9.15
2022-11-06T06:13:30.268Z,9.14
2022-11-06T06:16:55.549Z,9.13
2022-11-06T06:20:20.887Z,9.16
2022-11-06T06:23:46.153Z,9.08
2022-11-06T06:27:11.796Z,9.03
2022-11-06T06:30:37.066Z,9.03
2022-11-06T06:34:02.455Z,9.03
2022-11-06T06:37:28.197Z,9.07
2022-11-06T06:40:53.520Z,9.09
2022-11-06T06:44:18.854Z,9.03
2022-11-06T06:47:48.506Z,8.94
2022-11-06T06:51:23.864Z,8.88
2022-11-06T06:54:53.770Z,8.89
2022-11-06T06:58:19.292Z,8.87
2022-11-06T07:01:44.705Z,8.8
2022-11-06T07:05:09.880Z,8.75
2022-11-06T07:08:35.145Z,8.68
2022-11-06T07:12:02.403Z,8.64
2022-11-06T07:15:34.312Z,8.55
2022-11-06T07:19:06.080Z,8.56
2022-11-06T07:22:37.896Z,8.61
2022-11-06T07:26:09.690Z,8.63
2022-11-06T07:29:39.819Z,8.6
2022-11-06T07:33:13.838Z,8.54
2022-11-06T07:37:07.545Z,8.53
2022-11-06T07:40:47.051Z,8.61
2022-11-06T07:44:20.584Z,8.73
2022-11-06T07:47:45.912Z,8.83
2022-11-06T07:51:11.202Z,8.93
2022-11-06T07:54:36.523Z,8.96
2022-11-06T07:58:01.782Z,8.99
2022-11-06T08:01:27.165Z,9.02
2022-11-06T08:04:52.293Z,9.02
2022-11-06T08:08:17.560Z,9.03
2022-11-06T08:11:43.181Z,9.07
2022-11-06T08:15:09.764Z,9.08
2022-11-06T08:18:35.158Z,9.06
2022-11-06T08:22:00.452Z,9.03
2022-11-06T08:25:25.848Z,9.02
2022-11-06T08:28:51.590Z,9.01
2022-11-06T08:32:16.806Z,8.96
2022-11-06T08:35:42.197Z,8.97
2022-11-06T08:39:07.524Z,8.97
2022-11-06T08:42:32.892Z,8.96
2022-11-06T08:45:58.264Z,8.96
2022-11-06T08:49:23.546Z,8.95
2022-11-06T08:52:48.865Z,8.97
2022-11-06T08:56:14.340Z,9.01
2022-11-06T08:59:39.668Z,9.07
2022-11-06T09:03:05.030Z,9.02
2022-11-06T09:06:30.349Z,8.97
2022-11-06T09:09:55.608Z,8.99
2022-11-06T09:13:20.910Z,9.04
2022-11-06T09:16:46.153Z,9.09
2022-11-06T09:20:11.428Z,9.13
2022-11-06T09:23:36.805Z,9.22
2022-11-06T09:27:02.906Z,9.29
2022-11-06T09:30:28.167Z,9.37
2022-11-06T09:33:53.447Z,9.49
2022-11-06T09:37:18.784Z,9.6
2022-11-06T09:40:43.980Z,9.73
2022-11-06T09:44:09.201Z,9.84
2022-11-06T09:47:34.552Z,9.9
2022-11-06T09:50:59.782Z,9.94
2022-11-06T09:54:25.060Z,9.95
2022-11-06T09:57:50.337Z,10.02
2022-11-06T10:01:21.162Z,10.03
2022-11-06T10:04:40.817Z,9.99
2022-11-06T10:08:06.023Z,9.98
2022-11-06T10:11:31.438Z,9.99
2022-11-06T10:15:07.493Z,10.04
2022-11-06T10:18:32.908Z,10.12
2022-11-06T10:22:26.873Z,10.16
2022-11-06T10:25:52.287Z,10.23
2022-11-06T10:29:17.892Z,10.37
2022-11-06T10:32:43.252Z,10.44
2022-11-06T10:36:08.481Z,10.51
2022-11-06T10:39:37.747Z,10.66
2022-11-06T10:43:04.315Z,10.85
2022-11-06T10:46:29.954Z,10.98
2022-11-06T10:49:57.033Z,11.02
2022-11-06T10:53:25.542Z,10.95
2022-11-06T10:56:53.175Z,10.94
2022-11-06T11:00:19.350Z,10.89
2022-11-06T11:03:45.300Z,10.91
2022-11-06T11:07:11.098Z,10.92
2022-11-06T11:10:36.649Z,10.97
2022-11-06T11:14:02.059Z,11
2022-11-06T11:17:27.360Z,11.1
2022-11-06T11:20:52.833Z,11.24
2022-11-06T11:24:18.087Z,11.42
2022-11-06T11:27:43.370Z,11.57
2022-11-06T11:31:08.769Z,11.58
2022-11-06T11:34:34.112Z,11.65
2022-11-06T11:37:59.401Z,11.76
2022-11-06T11:41:24.651Z,11.78
2022-11-06T11:44:50.110Z,11.76
2022-11-06T11:48:17.177Z,11.76
2022-11-06T11:51:42.135Z,11.75
2022-11-06T11:55:07.481Z,11.77
2022-11-06T11:58:32.621Z,11.77
2022-11-06T12:01:57.972Z,11.76
2022-11-06T12:05:23.131Z,11.83
2022-11-06T12:08:48.394Z,11.88
2022-11-06T12:12:13.655Z,11.87
2022-11-06T12:15:38.869Z,11.9
2022-11-06T12:19:04.135Z,11.96
2022-11-06T12:22:29.410Z,12.03
2022-11-06T12:25:54.717Z,12.02
2022-11-06T12:29:20.117Z,12
2022-11-06T12:32:45.394Z,12.01
2022-11-06T12:36:10.728Z,12.03
2022-11-06T12:39:36.009Z,12
2022-11-06T12:43:01.262Z,12.02
2022-11-06T12:46:26.527Z,11.97
2022-11-06T12:49:51.796Z,11.9
2022-11-06T12:53:17.098Z,11.88
2022-11-06T12:56:42.430Z,11.88
2022-11-06T13:00:07.646Z,11.87
2022-11-06T13:03:32.964Z,11.89
2022-11-06T13:06:58.182Z,11.87
2022-11-06T13:10:23.505Z,11.86
2022-11-06T13:13:48.824Z,11.9
2022-11-06T13:17:14.094Z,11.92
2022-11-06T13:20:39.410Z,11.96
2022-11-06T13:24:04.733Z,11.97
2022-11-06T13:27:29.983Z,11.91
2022-11-06T13:30:55.250Z,11.89
2022-11-06T13:34:20.569Z,11.85
2022-11-06T13:37:45.896Z,11.74
2022-11-06T13:41:11.129Z,11.63
2022-11-06T13:44:36.465Z,11.6
2022-11-06T13:48:01.740Z,11.59
2022-11-06T13:51:27.021Z,11.5
2022-11-06T13:54:52.393Z,11.41
2022-11-06T13:58:17.664Z,11.44
2022-11-06T14:01:43.580Z,11.43
2022-11-06T14:05:08.993Z,11.51
2022-11-06T14:08:34.405Z,11.6
2022-11-06T14:12:00.485Z,11.59
2022-11-06T14:15:25.521Z,11.59
2022-11-06T14:18:50.968Z,11.54
2022-11-06T14:22:16.581Z,11.54
2022-11-06T14:25:44.706Z,11.54
2022-11-06T14:29:18.228Z,11.55
2022-11-06T15:03:27.791Z,8.67
2022-11-06T15:06:53.062Z,9.55
2022-11-06T15:10:18.352Z,9.73
2022-11-06T15:13:43.639Z,9.86
2022-11-06T15:17:09.481Z,9.97
2022-11-06T15:20:34.753Z,10.05
2022-11-06T15:24:00.106Z,10.13
2022-11-06T15:27:25.342Z,10.15
2022-11-06T15:30:50.924Z,10.14
2022-11-06T15:34:16.153Z,10.04
2022-11-06T15:37:41.449Z,10.02
2022-11-06T15:41:06.728Z,10
2022-11-06T15:44:32.330Z,10
2022-11-06T15:47:59.896Z,10
2022-11-06T15:51:25.475Z,10.03
2022-11-06T15:54:50.756Z,10.08
2022-11-06T15:58:16.349Z,10.08
2022-11-06T16:01:41.444Z,10.12
2022-11-06T16:05:06.560Z,10.09
2022-11-06T16:08:31.810Z,10.06
2022-11-06T16:11:57.142Z,10.03
2022-11-06T16:15:22.347Z,9.98
2022-11-06T16:18:47.601Z,9.94
2022-11-06T16:22:13.088Z,9.92
2022-11-06T16:25:38.552Z,9.9
2022-11-06T16:29:03.842Z,9.87
2022-11-06T16:32:29.017Z,9.89
2022-11-06T16:35:55.533Z,9.88
2022-11-06T16:39:19.523Z,9.85
2022-11-06T16:42:44.780Z,9.81
2022-11-06T16:46:10.113Z,9.74
2022-11-06T16:49:35.251Z,9.74
2022-11-06T16:53:00.503Z,9.71
2022-11-06T16:56:25.999Z,9.66
2022-11-06T16:59:51.263Z,9.59
2022-11-06T17:03:16.715Z,9.59
2022-11-06T17:06:41.766Z,9.52
2022-11-06T17:10:07.669Z,9.5
2022-11-06T17:13:32.906Z,9.46
2022-11-06T17:16:58.161Z,9.42
2022-11-06T17:20:23.441Z,9.38
2022-11-06T17:23:48.660Z,9.29
2022-11-06T17:27:13.898Z,9.26
2022-11-06T17:30:39.146Z,9.25
2022-11-06T17:34:04.413Z,9.19
2022-11-06T17:37:29.660Z,9.12
2022-11-06T17:40:54.965Z,9.07
2022-11-06T17:44:20.241Z,9
2022-11-06T17:47:45.469Z,8.96
2022-11-06T17:51:10.761Z,8.96
2022-11-06T17:54:36.131Z,8.88
2022-11-06T17:58:01.272Z,8.85
2022-11-06T18:01:26.549Z,8.86
2022-11-06T18:04:51.730Z,8.91
2022-11-06T18:08:17.172Z,9.02
2022-11-06T18:11:42.230Z,9.1
2022-11-06T18:15:07.422Z,9.16
2022-11-06T18:18:32.748Z,9.26
2022-11-06T18:22:01.103Z,9.32
2022-11-06T18:25:23.291Z,9.29
2022-11-06T18:28:48.552Z,9.32
2022-11-06T18:32:13.777Z,9.33
2022-11-06T18:35:38.996Z,9.34
2022-11-06T18:39:04.253Z,9.32
2022-11-06T18:42:29.470Z,9.26
2022-11-06T18:45:54.736Z,9.2
2022-11-06T18:49:19.919Z,9.19
2022-11-06T18:52:57.304Z,9.22
2022-11-06T18:56:10.400Z,9.31
2022-11-06T18:59:35.647Z,9.35
2022-11-06T19:03:00.966Z,9.4
2022-11-06T19:06:26.145Z,9.44
2022-11-06T19:09:51.353Z,9.43
2022-11-06T19:13:16.597Z,9.43
2022-11-06T19:16:41.843Z,9.43
2022-11-06T19:20:08.486Z,9.42
2022-11-06T19:23:32.311Z,9.45
2022-11-06T19:26:57.560Z,9.47
2022-11-06T19:30:22.802Z,9.53
2022-11-06T19:33:48.052Z,9.55
2022-11-06T19:37:13.327Z,9.56
2022-11-06T19:40:38.541Z,9.55
2022-11-06T19:44:03.800Z,9.57
2022-11-06T19:47:29.032Z,9.59
2022-11-06T19:50:59.539Z,9.6
2022-11-06T19:54:19.441Z,9.6
2022-11-06T19:57:44.668Z,9.58
2022-11-06T20:01:09.937Z,9.6
2022-11-06T20:04:35.098Z,9.64
2022-11-06T20:08:00.323Z,9.7
2022-11-06T20:11:25.578Z,9.73
2022-11-06T20:14:50.778Z,9.78
2022-11-06T20:18:16.029Z,9.83
2022-11-06T20:21:41.274Z,9.85
2022-11-06T20:25:06.543Z,9.85
2022-11-06T20:28:31.888Z,9.87
2022-11-06T20:31:57.013Z,9.86
2022-11-06T20:35:22.248Z,9.89
2022-11-06T20:38:47.492Z,9.91
2022-11-06T20:42:12.744Z,9.86
2022-11-06T20:45:38.063Z,9.84
2022-11-06T20:49:03.245Z,9.81
2022-11-06T20:52:28.489Z,9.82
2022-11-06T20:55:53.770Z,9.86
2022-11-06T20:59:18.996Z,9.92
2022-11-06T21:02:44.435Z,9.97
2022-11-06T21:06:09.509Z,10.07
2022-11-06T21:09:34.766Z,10.14
2022-11-06T21:13:00.033Z,10.19
2022-11-06T21:16:25.275Z,10.16
2022-11-06T21:19:50.535Z,10.18
2022-11-06T21:23:15.916Z,10.16
2022-11-06T21:26:40.988Z,10.06
2022-11-06T21:30:06.247Z,9.93
2022-11-06T21:33:31.493Z,9.84
2022-11-06T21:37:01.296Z,9.78
2022-11-06T21:40:22.018Z,9.7
2022-11-06T21:43:47.224Z,9.63
2022-11-06T21:47:12.492Z,9.6
2022-11-06T21:50:37.721Z,9.58
2022-11-06T21:54:03.093Z,9.57
2022-11-06T21:57:28.239Z,9.57
2022-11-06T22:00:53.507Z,9.58
2022-11-06T22:04:18.765Z,9.57
2022-11-06T22:07:43.993Z,9.56
2022-11-06T22:11:09.290Z,9.54
2022-11-06T22:14:34.543Z,9.53
2022-11-06T22:17:59.798Z,9.53
2022-11-06T22:21:25.067Z,9.54
2022-11-06T22:24:50.321Z,9.55
2022-11-06T22:28:15.561Z,9.52
2022-11-06T22:31:40.771Z,9.46
2022-11-06T22:35:05.981Z,9.41
2022-11-06T22:38:31.276Z,9.38
2022-11-06T22:41:56.531Z,9.36
2022-11-06T22:45:21.788Z,9.34
2022-11-06T22:48:47.015Z,9.34
2022-11-06T22:52:12.243Z,9.3
2022-11-06T22:55:37.493Z,9.27
2022-11-06T22:59:02.727Z,9.3
2022-11-06T23:02:28.108Z,9.31
2022-11-06T23:05:53.224Z,9.27
2022-11-06T23:09:18.466Z,9.23
2022-11-06T23:12:43.724Z,9.22
2022-11-06T23:16:08.963Z,9.24
2022-11-06T23:19:34.235Z,9.26
2022-11-06T23:22:59.501Z,9.27
2022-11-06T23:26:24.755Z,9.29
2022-11-06T23:29:49.988Z,9.34
2022-11-06T23:33:15.512Z,9.37
2022-11-06T23:36:40.606Z,9.39
2022-11-06T23:40:05.740Z,9.39
2022-11-06T23:43:30.992Z,9.41
2022-11-06T23:46:56.224Z,9.44
2022-11-06T23:50:21.500Z,9.43
2022-11-06T23:53:46.786Z,9.44
2022-11-06T23:57:11.981Z,9.45
